sensor_id;sensor_type;location;lat;lon;timestamp;pressure;altitude;pressure_sealevel;temperature;humidity
45763;BME280;37512;52.408;13.356;2023-08-12T00:00:40;101445.78;;;18.37;100.00
45763;BME280;37512;52.408;13.356;2023-08-12T00:04:42;101444.56;;;18.34;100.00
45763;BME280;37512;52.408;13.356;2023-08-12T00:08:44;101455.00;;;18.23;100.00
45763;BME280;37512;52.408;13.356;2023-08-12T00:12:45;101461.81;;;18.33;100.00
45763;BME280;37512;52.408;13.356;2023-08-12T00:16:47;101456.59;;;18.03;100.00
45763;BME280;37512;52.408;13.356;2023-08-12T00:20:49;101451.81;;;18.32;100.00
45763;BME280;37512;52.408;13.356;2023-08-12T00:24:51;101453.38;;;18.04;100.00
45763;BME280;37512;52.408;13.356;2023-08-12T00:28:53;101450.94;;;17.99;100.00
45763;BME280;37512;52.408;13.356;2023-08-12T00:32:55;101450.56;;;18.04;100.00
45763;BME280;37512;52.408;13.356;2023-08-12T00:36:56;101439.69;;;17.92;100.00
45763;BME280;37512;52.408;13.356;2023-08-12T00:40:58;101438.88;;;17.88;100.00
45763;BME280;37512;52.408;13.356;2023-08-12T00:45:00;101427.22;;;17.78;100.00
45763;BME280;37512;52.408;13.356;2023-08-12T00:49:02;101426.91;;;18.16;100.00
45763;BME280;37512;52.408;13.356;2023-08-12T00:53:04;101421.25;;;17.87;100.00
45763;BME280;37512;52.408;13.356;2023-08-12T00:57:09;101415.22;;;17.92;100.00
45763;BME280;37512;52.408;13.356;2023-08-12T01:01:11;101414.03;;;17.90;100.00
45763;BME280;37512;52.408;13.356;2023-08-12T01:05:14;101404.00;;;18.03;100.00
45763;BME280;37512;52.408;13.356;2023-08-12T01:09:17;101402.41;;;17.95;100.00
45763;BME280;37512;52.408;13.356;2023-08-12T01:13:32;101389.88;;;17.67;100.00
45763;BME280;37512;52.408;13.356;2023-08-12T01:17:37;101393.91;;;17.81;100.00
45763;BME280;37512;52.408;13.356;2023-08-12T01:21:43;101392.69;;;17.67;100.00
45763;BME280;37512;52.408;13.356;2023-08-12T01:25:45;101398.78;;;17.84;100.00
45763;BME280;37512;52.408;13.356;2023-08-12T01:29:49;101392.38;;;17.94;100.00
45763;BME280;37512;52.408;13.356;2023-08-12T01:34:00;101380.69;;;17.77;100.00
45763;BME280;37512;52.408;13.356;2023-08-12T01:38:05;101376.63;;;17.61;100.00
45763;BME280;37512;52.408;13.356;2023-08-12T01:42:07;101371.00;;;17.61;100.00
45763;BME280;37512;52.408;13.356;2023-08-12T01:46:10;101379.44;;;17.57;100.00
45763;BME280;37512;52.408;13.356;2023-08-12T01:50:12;101376.25;;;17.76;100.00
45763;BME280;37512;52.408;13.356;2023-08-12T01:54:13;101360.97;;;17.49;100.00
45763;BME280;37512;52.408;13.356;2023-08-12T01:58:15;101362.59;;;17.50;100.00
45763;BME280;37512;52.408;13.356;2023-08-12T02:02:17;101357.81;;;17.54;100.00
45763;BME280;37512;52.408;13.356;2023-08-12T02:06:19;101353.38;;;17.56;100.00
45763;BME280;37512;52.408;13.356;2023-08-12T02:10:21;101340.59;;;17.77;100.00
45763;BME280;37512;52.408;13.356;2023-08-12T02:14:23;101344.16;;;17.56;100.00
45763;BME280;37512;52.408;13.356;2023-08-12T02:18:24;101334.94;;;17.59;100.00
45763;BME280;37512;52.408;13.356;2023-08-12T02:22:26;101344.16;;;17.67;100.00
45763;BME280;37512;52.408;13.356;2023-08-12T02:26:28;101330.56;;;17.72;100.00
45763;BME280;37512;52.408;13.356;2023-08-12T02:30:30;101324.94;;;17.72;100.00
45763;BME280;37512;52.408;13.356;2023-08-12T02:34:31;101319.75;;;17.82;100.00
45763;BME280;37512;52.408;13.356;2023-08-12T02:38:33;101314.50;;;17.76;100.00
45763;BME280;37512;52.408;13.356;2023-08-12T02:42:35;101313.72;;;17.72;100.00
45763;BME280;37512;52.408;13.356;2023-08-12T02:46:36;101312.94;;;17.97;100.00
45763;BME280;37512;52.408;13.356;2023-08-12T02:50:39;101311.69;;;17.76;100.00
45763;BME280;37512;52.408;13.356;2023-08-12T02:54:40;101312.88;;;17.72;100.00
45763;BME280;37512;52.408;13.356;2023-08-12T02:58:42;101302.09;;;17.81;100.00
45763;BME280;37512;52.408;13.356;2023-08-12T03:02:43;101307.69;;;17.63;100.00
45763;BME280;37512;52.408;13.356;2023-08-12T03:06:45;101308.09;;;17.80;100.00
45763;BME280;37512;52.408;13.356;2023-08-12T03:10:47;101302.06;;;17.63;100.00
45763;BME280;37512;52.408;13.356;2023-08-12T03:14:49;101308.88;;;17.76;100.00
45763;BME280;37512;52.408;13.356;2023-08-12T03:18:50;101293.66;;;17.67;100.00
45763;BME280;37512;52.408;13.356;2023-08-12T03:22:52;101300.03;;;17.46;100.00
45763;BME280;37512;52.408;13.356;2023-08-12T03:26:53;101289.25;;;17.59;100.00
45763;BME280;37512;52.408;13.356;2023-08-12T03:30:55;101283.22;;;17.53;100.00
45763;BME280;37512;52.408;13.356;2023-08-12T03:34:57;101280.00;;;17.37;100.00
45763;BME280;37512;52.408;13.356;2023-08-12T03:38:58;101271.13;;;17.31;100.00
45763;BME280;37512;52.408;13.356;2023-08-12T03:43:00;101276.78;;;17.42;100.00
45763;BME280;37512;52.408;13.356;2023-08-12T03:47:02;101272.28;;;16.98;100.00
45763;BME280;37512;52.408;13.356;2023-08-12T03:51:03;101273.50;;;17.14;100.00
45763;BME280;37512;52.408;13.356;2023-08-12T03:55:06;101266.66;;;16.98;100.00
45763;BME280;37512;52.408;13.356;2023-08-12T03:59:08;101257.09;;;17.13;100.00
45763;BME280;37512;52.408;13.356;2023-08-12T04:03:09;101263.06;;;17.08;100.00
45763;BME280;37512;52.408;13.356;2023-08-12T04:07:11;101262.31;;;17.11;100.00
45763;BME280;37512;52.408;13.356;2023-08-12T04:11:13;101253.09;;;17.21;100.00
45763;BME280;37512;52.408;13.356;2023-08-12T04:15:14;101254.31;;;17.27;100.00
45763;BME280;37512;52.408;13.356;2023-08-12T04:19:17;101247.09;;;17.30;100.00
45763;BME280;37512;52.408;13.356;2023-08-12T04:23:19;101252.34;;;17.46;100.00
45763;BME280;37512;52.408;13.356;2023-08-12T04:27:20;101255.16;;;17.64;100.00
45763;BME280;37512;52.408;13.356;2023-08-12T04:31:22;101261.19;;;17.59;100.00
45763;BME280;37512;52.408;13.356;2023-08-12T04:35:24;101251.94;;;17.69;100.00
45763;BME280;37512;52.408;13.356;2023-08-12T04:39:25;101258.38;;;17.59;100.00
45763;BME280;37512;52.408;13.356;2023-08-12T04:43:27;101261.97;;;17.55;100.00
45763;BME280;37512;52.408;13.356;2023-08-12T04:47:28;101247.53;;;17.71;100.00
45763;BME280;37512;52.408;13.356;2023-08-12T04:51:30;101247.16;;;17.91;100.00
45763;BME280;37512;52.408;13.356;2023-08-12T04:55:34;101250.75;;;17.88;100.00
45763;BME280;37512;52.408;13.356;2023-08-12T04:59:36;101244.72;;;18.07;100.00
45763;BME280;37512;52.408;13.356;2023-08-12T05:03:38;101247.13;;;18.09;100.00
45763;BME280;37512;52.408;13.356;2023-08-12T05:07:39;101231.41;;;18.33;100.00
45763;BME280;37512;52.408;13.356;2023-08-12T05:11:41;101239.03;;;18.43;100.00
45763;BME280;37512;52.408;13.356;2023-08-12T05:15:47;101235.75;;;18.52;100.00
45763;BME280;37512;52.408;13.356;2023-08-12T05:19:48;101237.72;;;18.66;100.00
45763;BME280;37512;52.408;13.356;2023-08-12T05:23:50;101236.03;;;18.90;100.00
45763;BME280;37512;52.408;13.356;2023-08-12T05:27:52;101237.59;;;18.98;100.00
45763;BME280;37512;52.408;13.356;2023-08-12T05:31:53;101230.63;;;19.20;100.00
45763;BME280;37512;52.408;13.356;2023-08-12T05:35:55;101222.88;;;19.35;100.00
45763;BME280;37512;52.408;13.356;2023-08-12T05:39:57;101230.06;;;19.43;100.00
45763;BME280;37512;52.408;13.356;2023-08-12T05:43:58;101228.72;;;19.59;100.00
45763;BME280;37512;52.408;13.356;2023-08-12T05:48:00;101230.63;;;19.76;100.00
45763;BME280;37512;52.408;13.356;2023-08-12T05:52:02;101221.91;;;19.56;100.00
45763;BME280;37512;52.408;13.356;2023-08-12T05:56:03;101225.38;;;19.75;100.00
45763;BME280;37512;52.408;13.356;2023-08-12T06:00:06;101219.72;;;19.78;100.00
45763;BME280;37512;52.408;13.356;2023-08-12T06:04:07;101226.06;;;19.90;100.00
45763;BME280;37512;52.408;13.356;2023-08-12T06:08:09;101230.78;;;20.00;100.00
45763;BME280;37512;52.408;13.356;2023-08-12T06:12:11;101229.59;;;20.01;100.00
45763;BME280;37512;52.408;13.356;2023-08-12T06:16:13;101229.34;;;20.22;100.00
45763;BME280;37512;52.408;13.356;2023-08-12T06:20:14;101224.59;;;20.16;100.00
45763;BME280;37512;52.408;13.356;2023-08-12T06:24:16;101228.84;;;20.31;100.00
45763;BME280;37512;52.408;13.356;2023-08-12T06:28:18;101235.06;;;20.15;100.00
45763;BME280;37512;52.408;13.356;2023-08-12T06:32:20;101234.00;;;20.36;100.00
45763;BME280;37512;52.408;13.356;2023-08-12T06:36:21;101231.44;;;20.53;100.00
45763;BME280;37512;52.408;13.356;2023-08-12T06:40:23;101227.69;;;20.63;100.00
45763;BME280;37512;52.408;13.356;2023-08-12T06:44:25;101223.72;;;20.57;100.00
45763;BME280;37512;52.408;13.356;2023-08-12T06:48:26;101218.22;;;20.46;100.00
45763;BME280;37512;52.408;13.356;2023-08-12T06:52:28;101229.50;;;20.46;100.00
45763;BME280;37512;52.408;13.356;2023-08-12T06:56:29;101225.34;;;20.54;100.00
45763;BME280;37512;52.408;13.356;2023-08-12T07:00:31;101217.97;;;20.67;100.00
45763;BME280;37512;52.408;13.356;2023-08-12T07:04:33;101217.50;;;20.73;100.00
45763;BME280;37512;52.408;13.356;2023-08-12T07:08:35;101209.19;;;20.89;100.00
45763;BME280;37512;52.408;13.356;2023-08-12T07:12:37;101206.72;;;21.22;100.00
45763;BME280;37512;52.408;13.356;2023-08-12T07:16:38;101211.88;;;21.54;100.00
45763;BME280;37512;52.408;13.356;2023-08-12T07:20:40;101196.63;;;21.95;100.00
45763;BME280;37512;52.408;13.356;2023-08-12T07:24:41;101204.13;;;22.25;98.59
45763;BME280;37512;52.408;13.356;2023-08-12T07:28:43;101203.59;;;22.10;97.26
45763;BME280;37512;52.408;13.356;2023-08-12T07:32:45;101195.50;;;22.32;97.95
45763;BME280;37512;52.408;13.356;2023-08-12T07:36:47;101197.84;;;22.38;95.14
45763;BME280;37512;52.408;13.356;2023-08-12T07:40:49;101199.59;;;22.31;98.62
45763;BME280;37512;52.408;13.356;2023-08-12T07:44:51;101200.22;;;22.59;97.48
45763;BME280;37512;52.408;13.356;2023-08-12T07:48:53;101197.28;;;22.83;95.85
45763;BME280;37512;52.408;13.356;2023-08-12T07:52:54;101197.72;;;22.81;91.91
45763;BME280;37512;52.408;13.356;2023-08-12T07:56:56;101192.56;;;22.76;94.55
45763;BME280;37512;52.408;13.356;2023-08-12T08:00:57;101190.06;;;22.98;94.26
45763;BME280;37512;52.408;13.356;2023-08-12T08:04:59;101189.59;;;23.20;96.75
45763;BME280;37512;52.408;13.356;2023-08-12T08:09:01;101194.72;;;23.57;90.60
45763;BME280;37512;52.408;13.356;2023-08-12T08:13:05;101191.34;;;23.46;87.40
45763;BME280;37512;52.408;13.356;2023-08-12T08:17:06;101189.25;;;23.17;91.61
45763;BME280;37512;52.408;13.356;2023-08-12T08:21:08;101189.59;;;23.20;91.66
45763;BME280;37512;52.408;13.356;2023-08-12T08:25:10;101191.44;;;23.26;94.47
45763;BME280;37512;52.408;13.356;2023-08-12T08:29:12;101198.00;;;22.87;97.93
45763;BME280;37512;52.408;13.356;2023-08-12T08:33:14;101193.06;;;22.91;97.87
45763;BME280;37512;52.408;13.356;2023-08-12T08:37:16;101191.13;;;22.88;100.00
45763;BME280;37512;52.408;13.356;2023-08-12T08:41:17;101186.03;;;22.79;100.00
45763;BME280;37512;52.408;13.356;2023-08-12T08:45:20;101177.84;;;22.65;100.00
45763;BME280;37512;52.408;13.356;2023-08-12T08:49:22;101184.97;;;22.53;100.00
45763;BME280;37512;52.408;13.356;2023-08-12T08:53:24;101189.25;;;22.97;100.00
45763;BME280;37512;52.408;13.356;2023-08-12T08:57:26;101194.97;;;23.14;100.00
45763;BME280;37512;52.408;13.356;2023-08-12T09:01:49;101194.97;;;23.30;100.00
45763;BME280;37512;52.408;13.356;2023-08-12T09:05:55;101191.16;;;23.53;100.00
45763;BME280;37512;52.408;13.356;2023-08-12T09:09:58;101180.00;;;23.63;100.00
45763;BME280;37512;52.408;13.356;2023-08-12T09:14:02;101189.03;;;23.57;100.00
45763;BME280;37512;52.408;13.356;2023-08-12T09:18:05;101197.38;;;24.10;97.55
45763;BME280;37512;52.408;13.356;2023-08-12T09:22:08;101186.91;;;24.66;88.98
45763;BME280;37512;52.408;13.356;2023-08-12T09:26:18;101183.03;;;24.72;86.33
45763;BME280;37512;52.408;13.356;2023-08-12T09:30:20;101178.06;;;24.63;88.47
45763;BME280;37512;52.408;13.356;2023-08-12T09:34:23;101169.97;;;24.62;84.87
45763;BME280;37512;52.408;13.356;2023-08-12T09:38:25;101172.50;;;24.31;89.95
45763;BME280;37512;52.408;13.356;2023-08-12T09:42:28;101169.78;;;24.27;93.28
45763;BME280;37512;52.408;13.356;2023-08-12T09:46:32;101170.59;;;24.40;89.38
45763;BME280;37512;52.408;13.356;2023-08-12T09:50:35;101176.47;;;24.88;90.19
45763;BME280;37512;52.408;13.356;2023-08-12T09:54:38;101177.84;;;25.09;90.32
45763;BME280;37512;52.408;13.356;2023-08-12T09:58:41;101169.78;;;25.33;85.53
45763;BME280;37512;52.408;13.356;2023-08-12T10:02:46;101175.56;;;25.17;86.54
45763;BME280;37512;52.408;13.356;2023-08-12T10:06:49;101169.09;;;24.91;88.05
45763;BME280;37512;52.408;13.356;2023-08-12T10:10:51;101157.06;;;24.87;91.25
45763;BME280;37512;52.408;13.356;2023-08-12T10:15:11;101152.19;;;24.87;90.95
45763;BME280;37512;52.408;13.356;2023-08-12T10:19:16;101146.41;;;24.91;93.16
45763;BME280;37512;52.408;13.356;2023-08-12T10:23:19;101140.34;;;25.01;93.00
45763;BME280;37512;52.408;13.356;2023-08-12T10:27:21;101138.88;;;24.97;95.72
45763;BME280;37512;52.408;13.356;2023-08-12T10:31:26;101142.28;;;25.04;95.85
45763;BME280;37512;52.408;13.356;2023-08-12T10:35:49;101123.53;;;25.20;95.48
45763;BME280;37512;52.408;13.356;2023-08-12T10:39:54;101116.47;;;25.37;94.12
45763;BME280;37512;52.408;13.356;2023-08-12T10:43:59;101141.09;;;25.53;94.06
45763;BME280;37512;52.408;13.356;2023-08-12T10:52:04;101149.38;;;25.48;92.51
45763;BME280;37512;52.408;13.356;2023-08-12T10:56:11;101129.91;;;25.59;96.89
45763;BME280;37512;52.408;13.356;2023-08-12T11:00:17;101124.28;;;25.46;97.26
45763;BME280;37512;52.408;13.356;2023-08-12T11:04:19;101129.41;;;25.38;96.66
45763;BME280;37512;52.408;13.356;2023-08-12T11:08:24;101117.75;;;25.23;93.05
45763;BME280;37512;52.408;13.356;2023-08-12T11:12:31;101125.16;;;25.21;92.66
45763;BME280;37512;52.408;13.356;2023-08-12T11:16:37;101127.63;;;25.32;92.24
45763;BME280;37512;52.408;13.356;2023-08-12T11:20:42;101113.56;;;25.02;92.31
45763;BME280;37512;52.408;13.356;2023-08-12T11:24:54;101133.91;;;24.75;94.45
45763;BME280;37512;52.408;13.356;2023-08-12T11:28:56;101142.72;;;24.52;96.25
45763;BME280;37512;52.408;13.356;2023-08-12T11:32:58;101138.31;;;24.21;99.26
45763;BME280;37512;52.408;13.356;2023-08-12T11:37:00;101147.91;;;24.40;100.00
45763;BME280;37512;52.408;13.356;2023-08-12T11:41:04;101142.69;;;24.39;100.00
45763;BME280;37512;52.408;13.356;2023-08-12T11:45:06;101151.72;;;24.21;100.00
45763;BME280;37512;52.408;13.356;2023-08-12T11:49:08;101143.22;;;24.21;100.00
45763;BME280;37512;52.408;13.356;2023-08-12T11:53:10;101132.22;;;24.23;100.00
45763;BME280;37512;52.408;13.356;2023-08-12T11:57:12;101140.78;;;24.49;100.00
45763;BME280;37512;52.408;13.356;2023-08-12T12:01:15;101148.53;;;24.61;100.00
45763;BME280;37512;52.408;13.356;2023-08-12T12:05:18;101139.63;;;24.46;100.00
45763;BME280;37512;52.408;13.356;2023-08-12T12:09:23;101146.25;;;24.14;100.00
45763;BME280;37512;52.408;13.356;2023-08-12T12:13:27;101143.38;;;24.01;100.00
45763;BME280;37512;52.408;13.356;2023-08-12T12:17:31;101130.84;;;23.86;100.00
45763;BME280;37512;52.408;13.356;2023-08-12T12:21:41;101125.91;;;24.03;100.00
45763;BME280;37512;52.408;13.356;2023-08-12T12:25:44;101106.50;;;23.88;100.00
45763;BME280;37512;52.408;13.356;2023-08-12T12:29:48;101088.47;;;23.95;100.00
45763;BME280;37512;52.408;13.356;2023-08-12T12:33:49;101052.56;;;24.17;100.00
45763;BME280;37512;52.408;13.356;2023-08-12T12:37:54;101023.63;;;24.10;100.00
45763;BME280;37512;52.408;13.356;2023-08-12T12:41:56;101028.44;;;24.51;100.00
45763;BME280;37512;52.408;13.356;2023-08-12T12:46:00;101024.16;;;25.07;100.00
45763;BME280;37512;52.408;13.356;2023-08-12T12:50:02;101020.41;;;25.67;98.26
45763;BME280;37512;52.408;13.356;2023-08-12T12:54:04;101019.28;;;26.08;92.22
45763;BME280;37512;52.408;13.356;2023-08-12T12:58:06;101033.06;;;26.50;91.17
45763;BME280;37512;52.408;13.356;2023-08-12T13:02:09;101018.00;;;26.81;89.67
45763;BME280;37512;52.408;13.356;2023-08-12T13:06:11;101015.81;;;27.04;87.89
45763;BME280;37512;52.408;13.356;2023-08-12T13:10:12;101022.19;;;27.54;81.87
45763;BME280;37512;52.408;13.356;2023-08-12T13:14:14;101014.84;;;26.98;83.94
45763;BME280;37512;52.408;13.356;2023-08-12T13:18:18;101008.91;;;27.32;81.13
45763;BME280;37512;52.408;13.356;2023-08-12T13:22:22;101008.19;;;28.02;78.58
45763;BME280;37512;52.408;13.356;2023-08-12T13:26:25;101002.75;;;28.13;78.32
45763;BME280;37512;52.408;13.356;2023-08-12T13:30:27;100998.19;;;28.07;76.82
45763;BME280;37512;52.408;13.356;2023-08-12T13:34:29;100997.94;;;28.29;74.38
45763;BME280;37512;52.408;13.356;2023-08-12T13:38:31;100983.97;;;27.79;72.02
45763;BME280;37512;52.408;13.356;2023-08-12T13:42:33;100995.69;;;27.90;72.48
45763;BME280;37512;52.408;13.356;2023-08-12T13:46:35;100984.31;;;28.90;64.16
45763;BME280;37512;52.408;13.356;2023-08-12T13:50:36;100988.50;;;28.56;63.35
45763;BME280;37512;52.408;13.356;2023-08-12T13:54:38;100976.00;;;28.44;67.35
45763;BME280;37512;52.408;13.356;2023-08-12T13:58:39;100979.31;;;28.43;66.00
45763;BME280;37512;52.408;13.356;2023-08-12T14:02:41;100982.34;;;28.39;67.01
45763;BME280;37512;52.408;13.356;2023-08-12T14:06:42;100977.84;;;28.56;66.90
45763;BME280;37512;52.408;13.356;2023-08-12T14:10:46;100976.34;;;28.94;62.64
45763;BME280;37512;52.408;13.356;2023-08-12T14:14:48;100971.34;;;29.43;60.57
45763;BME280;37512;52.408;13.356;2023-08-12T14:18:50;100965.50;;;29.37;60.66
45763;BME280;37512;52.408;13.356;2023-08-12T14:22:53;100960.53;;;28.60;62.53
45763;BME280;37512;52.408;13.356;2023-08-12T14:26:55;100957.41;;;28.15;66.24
45763;BME280;37512;52.408;13.356;2023-08-12T14:30:57;100950.56;;;28.55;64.23
45763;BME280;37512;52.408;13.356;2023-08-12T14:34:59;100954.31;;;28.38;64.43
45763;BME280;37512;52.408;13.356;2023-08-12T14:39:01;100955.22;;;28.10;66.43
45763;BME280;37512;52.408;13.356;2023-08-12T14:43:03;100949.53;;;28.10;66.21
45763;BME280;37512;52.408;13.356;2023-08-12T14:47:05;100940.16;;;28.91;63.19
45763;BME280;37512;52.408;13.356;2023-08-12T14:51:06;100944.84;;;29.04;65.82
45763;BME280;37512;52.408;13.356;2023-08-12T14:55:08;100932.09;;;29.29;60.53
45763;BME280;37512;52.408;13.356;2023-08-12T14:59:10;100928.56;;;28.95;61.22
45763;BME280;37512;52.408;13.356;2023-08-12T15:03:12;100923.19;;;28.49;62.57
45763;BME280;37512;52.408;13.356;2023-08-12T15:07:16;100921.31;;;28.36;67.50
45763;BME280;37512;52.408;13.356;2023-08-12T15:11:20;100907.56;;;28.02;67.24
45763;BME280;37512;52.408;13.356;2023-08-12T15:15:22;100907.41;;;27.96;68.11
45763;BME280;37512;52.408;13.356;2023-08-12T15:19:23;100902.06;;;27.89;68.87
45763;BME280;37512;52.408;13.356;2023-08-12T15:23:25;100909.63;;;28.01;69.89
45763;BME280;37512;52.408;13.356;2023-08-12T15:27:27;100906.38;;;28.18;70.72
45763;BME280;37512;52.408;13.356;2023-08-12T15:31:29;100904.78;;;28.16;73.27
45763;BME280;37512;52.408;13.356;2023-08-12T15:35:33;100897.22;;;28.62;78.91
45763;BME280;37512;52.408;13.356;2023-08-12T15:39:35;100890.94;;;30.15;61.66
45763;BME280;37512;52.408;13.356;2023-08-12T15:43:37;100899.28;;;29.69;60.21
45763;BME280;37512;52.408;13.356;2023-08-12T15:47:39;100899.28;;;29.54;62.09
45763;BME280;37512;52.408;13.356;2023-08-12T15:51:41;100893.03;;;28.72;68.52
45763;BME280;37512;52.408;13.356;2023-08-12T15:55:42;100888.19;;;28.63;69.63
45763;BME280;37512;52.408;13.356;2023-08-12T15:59:45;100885.81;;;28.62;70.71
45763;BME280;37512;52.408;13.356;2023-08-12T16:03:47;100884.47;;;28.24;72.66
45763;BME280;37512;52.408;13.356;2023-08-12T16:07:49;100875.53;;;28.31;71.73
45763;BME280;37512;52.408;13.356;2023-08-12T16:11:51;100862.94;;;28.13;71.80
45763;BME280;37512;52.408;13.356;2023-08-12T16:15:53;100874.16;;;27.93;74.50
45763;BME280;37512;52.408;13.356;2023-08-12T16:19:55;100865.78;;;27.80;73.38
45763;BME280;37512;52.408;13.356;2023-08-12T16:23:57;100853.94;;;27.72;70.75
45763;BME280;37512;52.408;13.356;2023-08-12T16:27:59;100853.47;;;27.74;69.34
45763;BME280;37512;52.408;13.356;2023-08-12T16:32:01;100851.03;;;27.82;67.42
45763;BME280;37512;52.408;13.356;2023-08-12T16:36:04;100846.00;;;27.34;70.23
45763;BME280;37512;52.408;13.356;2023-08-12T16:40:06;100841.22;;;27.40;70.13
45763;BME280;37512;52.408;13.356;2023-08-12T16:44:08;100837.25;;;27.47;69.79
45763;BME280;37512;52.408;13.356;2023-08-12T16:48:10;100837.94;;;27.32;71.96
45763;BME280;37512;52.408;13.356;2023-08-12T16:52:12;100830.97;;;27.15;75.61
45763;BME280;37512;52.408;13.356;2023-08-12T16:56:14;100829.41;;;27.23;77.89
45763;BME280;37512;52.408;13.356;2023-08-12T17:00:18;100833.06;;;27.05;80.54
45763;BME280;37512;52.408;13.356;2023-08-12T17:04:20;100844.16;;;26.85;84.08
45763;BME280;37512;52.408;13.356;2023-08-12T17:08:22;100834.66;;;26.60;87.07
45763;BME280;37512;52.408;13.356;2023-08-12T17:12:23;100847.03;;;26.57;90.18
45763;BME280;37512;52.408;13.356;2023-08-12T17:16:27;100842.66;;;26.25;92.45
45763;BME280;37512;52.408;13.356;2023-08-12T17:20:29;100830.69;;;26.48;90.80
45763;BME280;37512;52.408;13.356;2023-08-12T17:24:32;100844.91;;;26.39;93.66
45763;BME280;37512;52.408;13.356;2023-08-12T17:28:34;100842.06;;;26.39;92.94
45763;BME280;37512;52.408;13.356;2023-08-12T17:32:36;100834.31;;;26.49;92.11
45763;BME280;37512;52.408;13.356;2023-08-12T17:36:44;100837.66;;;26.57;91.53
45763;BME280;37512;52.408;13.356;2023-08-12T17:40:49;100838.59;;;26.44;92.71
45763;BME280;37512;52.408;13.356;2023-08-12T17:44:51;100832.56;;;26.42;93.57
45763;BME280;37512;52.408;13.356;2023-08-12T17:48:53;100836.63;;;26.14;96.75
45763;BME280;37512;52.408;13.356;2023-08-12T17:52:55;100845.13;;;25.95;99.01
45763;BME280;37512;52.408;13.356;2023-08-12T17:56:56;100838.41;;;25.80;97.70
45763;BME280;37512;52.408;13.356;2023-08-12T18:00:59;100849.75;;;25.39;100.00
45763;BME280;37512;52.408;13.356;2023-08-12T18:05:01;100869.66;;;25.71;100.00
45763;BME280;37512;52.408;13.356;2023-08-12T18:09:02;100912.50;;;22.43;100.00
45763;BME280;37512;52.408;13.356;2023-08-12T18:13:08;100909.41;;;21.08;100.00
45763;BME280;37512;52.408;13.356;2023-08-12T18:17:10;100899.84;;;23.10;100.00
45763;BME280;37512;52.408;13.356;2023-08-12T18:21:11;100924.25;;;23.33;100.00
45763;BME280;37512;52.408;13.356;2023-08-12T18:25:13;100930.16;;;23.80;100.00
45763;BME280;37512;52.408;13.356;2023-08-12T18:29:14;100937.59;;;23.62;100.00
45763;BME280;37512;52.408;13.356;2023-08-12T18:33:16;100939.47;;;23.39;100.00
45763;BME280;37512;52.408;13.356;2023-08-12T18:37:17;100945.25;;;22.90;100.00
45763;BME280;37512;52.408;13.356;2023-08-12T18:41:20;100962.50;;;21.93;100.00
45763;BME280;37512;52.408;13.356;2023-08-12T18:45:22;100964.50;;;21.77;100.00
45763;BME280;37512;52.408;13.356;2023-08-12T18:49:23;100953.38;;;21.69;100.00
45763;BME280;37512;52.408;13.356;2023-08-12T18:53:24;100951.56;;;21.96;100.00
45763;BME280;37512;52.408;13.356;2023-08-12T18:57:28;100941.81;;;21.80;100.00
45763;BME280;37512;52.408;13.356;2023-08-12T19:01:31;100915.91;;;22.18;100.00
45763;BME280;37512;52.408;13.356;2023-08-12T19:05:32;100919.34;;;21.93;100.00
45763;BME280;37512;52.408;13.356;2023-08-12T19:09:34;100927.25;;;21.82;100.00
45763;BME280;37512;52.408;13.356;2023-08-12T19:13:36;100921.00;;;21.90;100.00
45763;BME280;37512;52.408;13.356;2023-08-12T19:17:37;100918.97;;;21.91;100.00
45763;BME280;37512;52.408;13.356;2023-08-12T19:21:39;100925.47;;;21.71;100.00
45763;BME280;37512;52.408;13.356;2023-08-12T19:25:41;100924.81;;;22.00;100.00
45763;BME280;37512;52.408;13.356;2023-08-12T19:29:43;100920.72;;;22.21;100.00
45763;BME280;37512;52.408;13.356;2023-08-12T19:33:44;100923.69;;;22.14;100.00
45763;BME280;37512;52.408;13.356;2023-08-12T19:37:47;100921.44;;;22.58;100.00
45763;BME280;37512;52.408;13.356;2023-08-12T19:41:49;100919.44;;;22.88;100.00
45763;BME280;37512;52.408;13.356;2023-08-12T19:45:50;100924.59;;;22.76;100.00
45763;BME280;37512;52.408;13.356;2023-08-12T19:49:52;100924.34;;;22.38;100.00
45763;BME280;37512;52.408;13.356;2023-08-12T19:53:53;100933.22;;;22.04;100.00
45763;BME280;37512;52.408;13.356;2023-08-12T19:57:56;100925.66;;;22.17;100.00
45763;BME280;37512;52.408;13.356;2023-08-12T20:01:58;100929.78;;;22.12;100.00
45763;BME280;37512;52.408;13.356;2023-08-12T20:05:59;100923.38;;;22.28;100.00
45763;BME280;37512;52.408;13.356;2023-08-12T20:10:01;100930.50;;;22.82;100.00
45763;BME280;37512;52.408;13.356;2023-08-12T20:14:03;100936.84;;;22.04;100.00
45763;BME280;37512;52.408;13.356;2023-08-12T20:18:05;100937.03;;;22.13;100.00
45763;BME280;37512;52.408;13.356;2023-08-12T20:22:07;100947.22;;;21.55;100.00
45763;BME280;37512;52.408;13.356;2023-08-12T20:26:12;100947.63;;;21.33;100.00
45763;BME280;37512;52.408;13.356;2023-08-12T20:30:14;100952.25;;;21.23;100.00
45763;BME280;37512;52.408;13.356;2023-08-12T20:34:15;100950.69;;;21.42;100.00
45763;BME280;37512;52.408;13.356;2023-08-12T20:38:17;100950.97;;;21.28;100.00
45763;BME280;37512;52.408;13.356;2023-08-12T20:42:21;100950.06;;;21.11;100.00